sensor_id;sensor_type;location;lat;lon;timestamp;pressure;altitude;pressure_sealevel;temperature;humidity
75745;BME280;64359;51.366;-0.222;2023-01-23T00:00:29;103301.02;;;21.96;37.82
75745;BME280;64359;51.366;-0.222;2023-01-23T00:01:35;103309.78;;;21.97;37.77
75745;BME280;64359;51.366;-0.222;2023-01-23T00:02:39;103306.15;;;21.93;37.87
75745;BME280;64359;51.366;-0.222;2023-01-23T00:03:44;103306.21;;;21.91;37.86
75745;BME280;64359;51.366;-0.222;2023-01-23T00:04:49;103301.53;;;21.88;37.97
75745;BME280;64359;51.366;-0.222;2023-01-23T00:06:00;103297.66;;;21.85;37.95
75745;BME280;64359;51.366;-0.222;2023-01-23T00:07:05;103293.05;;;21.82;37.93
75745;BME280;64359;51.366;-0.222;2023-01-23T00:08:09;103293.30;;;21.79;37.96
75745;BME280;64359;51.366;-0.222;2023-01-23T00:09:13;103291.15;;;21.77;38.02
75745;BME280;64359;51.366;-0.222;2023-01-23T00:10:18;103286.48;;;21.74;38.07
75745;BME280;64359;51.366;-0.222;2023-01-23T00:11:25;103285.83;;;21.71;38.01
75745;BME280;64359;51.366;-0.222;2023-01-23T00:12:29;103282.27;;;21.68;38.02
75745;BME280;64359;51.366;-0.222;2023-01-23T00:13:34;103279.85;;;21.65;38.08
75745;BME280;64359;51.366;-0.222;2023-01-23T00:14:38;103277.86;;;21.63;38.11
75745;BME280;64359;51.366;-0.222;2023-01-23T00:15:43;103272.52;;;21.60;38.19
75745;BME280;64359;51.366;-0.222;2023-01-23T00:16:47;103266.78;;;21.58;38.21
75745;BME280;64359;51.366;-0.222;2023-01-23T00:17:52;103262.60;;;21.56;38.03
75745;BME280;64359;51.366;-0.222;2023-01-23T00:18:56;103259.23;;;21.53;38.18
75745;BME280;64359;51.366;-0.222;2023-01-23T00:20:01;103259.31;;;21.50;38.17
75745;BME280;64359;51.366;-0.222;2023-01-23T00:21:08;103254.60;;;21.48;38.19
75745;BME280;64359;51.366;-0.222;2023-01-23T00:22:12;103253.11;;;21.44;38.27
75745;BME280;64359;51.366;-0.222;2023-01-23T00:23:17;103252.73;;;21.42;38.21
75745;BME280;64359;51.366;-0.222;2023-01-23T00:24:22;103253.31;;;21.39;38.30
75745;BME280;64359;51.366;-0.222;2023-01-23T00:25:26;103254.53;;;21.38;38.24
75745;BME280;64359;51.366;-0.222;2023-01-23T00:26:31;103248.09;;;21.35;38.32
75745;BME280;64359;51.366;-0.222;2023-01-23T00:27:36;103252.08;;;21.33;38.32
75745;BME280;64359;51.366;-0.222;2023-01-23T00:28:40;103249.98;;;21.30;38.32
75745;BME280;64359;51.366;-0.222;2023-01-23T00:29:45;103248.63;;;21.29;38.34
75745;BME280;64359;51.366;-0.222;2023-01-23T00:30:49;103251.39;;;21.26;38.39
75745;BME280;64359;51.366;-0.222;2023-01-23T00:31:54;103251.42;;;21.23;38.26
75745;BME280;64359;51.366;-0.222;2023-01-23T00:32:58;103248.11;;;21.22;38.38
75745;BME280;64359;51.366;-0.222;2023-01-23T00:34:04;103245.09;;;21.19;38.43
75745;BME280;64359;51.366;-0.222;2023-01-23T00:35:10;103245.05;;;21.18;38.40
75745;BME280;64359;51.366;-0.222;2023-01-23T00:36:15;103247.61;;;21.15;38.50
75745;BME280;64359;51.366;-0.222;2023-01-23T00:37:20;103240.31;;;21.10;38.44
75745;BME280;64359;51.366;-0.222;2023-01-23T00:38:25;103246.10;;;21.12;38.58
75745;BME280;64359;51.366;-0.222;2023-01-23T00:39:29;103243.98;;;21.09;38.54
75745;BME280;64359;51.366;-0.222;2023-01-23T00:40:34;103243.83;;;21.06;38.65
75745;BME280;64359;51.366;-0.222;2023-01-23T00:41:38;103241.77;;;21.05;38.56
75745;BME280;64359;51.366;-0.222;2023-01-23T00:42:42;103239.64;;;21.02;38.64
75745;BME280;64359;51.366;-0.222;2023-01-23T00:43:47;103241.08;;;21.01;38.58
75745;BME280;64359;51.366;-0.222;2023-01-23T00:44:53;103239.30;;;20.98;38.61
75745;BME280;64359;51.366;-0.222;2023-01-23T00:45:58;103235.16;;;20.96;38.64
75745;BME280;64359;51.366;-0.222;2023-01-23T00:47:03;103239.44;;;20.95;38.74
75745;BME280;64359;51.366;-0.222;2023-01-23T00:48:08;103237.87;;;20.92;38.67
75745;BME280;64359;51.366;-0.222;2023-01-23T00:49:12;103235.52;;;20.89;38.69
75745;BME280;64359;51.366;-0.222;2023-01-23T00:50:19;103231.52;;;20.83;38.80
75745;BME280;64359;51.366;-0.222;2023-01-23T00:51:24;103240.39;;;20.85;38.74
75745;BME280;64359;51.366;-0.222;2023-01-23T00:52:28;103243.98;;;20.83;38.77
75745;BME280;64359;51.366;-0.222;2023-01-23T00:53:33;103247.92;;;20.81;38.86
75745;BME280;64359;51.366;-0.222;2023-01-23T00:54:37;103246.92;;;20.80;38.78
75745;BME280;64359;51.366;-0.222;2023-01-23T00:55:42;103248.20;;;20.78;38.88
75745;BME280;64359;51.366;-0.222;2023-01-23T00:56:47;103249.98;;;20.76;38.88
75745;BME280;64359;51.366;-0.222;2023-01-23T00:57:51;103250.13;;;20.74;38.86
75745;BME280;64359;51.366;-0.222;2023-01-23T00:58:55;103251.24;;;20.72;38.95
75745;BME280;64359;51.366;-0.222;2023-01-23T01:00:00;103250.98;;;20.71;38.90
75745;BME280;64359;51.366;-0.222;2023-01-23T01:01:04;103250.11;;;20.68;38.91
75745;BME280;64359;51.366;-0.222;2023-01-23T01:02:09;103251.11;;;20.67;38.93
75745;BME280;64359;51.366;-0.222;2023-01-23T01:03:13;103250.59;;;20.65;38.95
75745;BME280;64359;51.366;-0.222;2023-01-23T01:04:18;103253.79;;;20.63;38.98
75745;BME280;64359;51.366;-0.222;2023-01-23T01:05:22;103251.75;;;20.57;38.93
75745;BME280;64359;51.366;-0.222;2023-01-23T01:06:27;103257.89;;;20.60;39.04
75745;BME280;64359;51.366;-0.222;2023-01-23T01:07:31;103256.77;;;20.58;39.08
75745;BME280;64359;51.366;-0.222;2023-01-23T01:08:36;103261.27;;;20.55;38.99
75745;BME280;64359;51.366;-0.222;2023-01-23T01:09:41;103260.21;;;20.53;39.12
75745;BME280;64359;51.366;-0.222;2023-01-23T01:10:45;103261.42;;;20.51;39.05
75745;BME280;64359;51.366;-0.222;2023-01-23T01:11:49;103261.58;;;20.49;39.11
75745;BME280;64359;51.366;-0.222;2023-01-23T01:12:54;103261.85;;;20.48;39.07
75745;BME280;64359;51.366;-0.222;2023-01-23T01:13:58;103265.99;;;20.46;39.01
75745;BME280;64359;51.366;-0.222;2023-01-23T01:15:05;103269.40;;;20.44;39.10
75745;BME280;64359;51.366;-0.222;2023-01-23T01:16:10;103271.32;;;20.43;39.14
75745;BME280;64359;51.366;-0.222;2023-01-23T01:17:14;103269.32;;;20.41;39.08
75745;BME280;64359;51.366;-0.222;2023-01-23T01:18:19;103270.48;;;20.40;39.07
75745;BME280;64359;51.366;-0.222;2023-01-23T01:19:24;103270.09;;;20.38;39.06
75745;BME280;64359;51.366;-0.222;2023-01-23T01:20:30;103265.89;;;20.36;39.06
75745;BME280;64359;51.366;-0.222;2023-01-23T01:21:34;103262.77;;;20.35;39.12
75745;BME280;64359;51.366;-0.222;2023-01-23T01:22:40;103260.83;;;20.34;39.03
75745;BME280;64359;51.366;-0.222;2023-01-23T01:23:45;103260.37;;;20.33;39.09
75745;BME280;64359;51.366;-0.222;2023-01-23T01:24:49;103258.52;;;20.31;39.07
75745;BME280;64359;51.366;-0.222;2023-01-23T01:25:58;103256.14;;;20.30;39.09
75745;BME280;64359;51.366;-0.222;2023-01-23T01:27:03;103258.92;;;20.29;39.13
75745;BME280;64359;51.366;-0.222;2023-01-23T01:28:07;103260.51;;;20.27;39.11
75745;BME280;64359;51.366;-0.222;2023-01-23T01:29:12;103265.50;;;20.25;39.03
75745;BME280;64359;51.366;-0.222;2023-01-23T01:30:17;103270.65;;;20.24;39.14
75745;BME280;64359;51.366;-0.222;2023-01-23T01:31:21;103272.10;;;20.22;39.15
75745;BME280;64359;51.366;-0.222;2023-01-23T01:32:26;103273.52;;;20.20;39.24
75745;BME280;64359;51.366;-0.222;2023-01-23T01:33:31;103276.14;;;20.19;39.15
75745;BME280;64359;51.366;-0.222;2023-01-23T01:34:36;103275.06;;;20.16;39.04
75745;BME280;64359;51.366;-0.222;2023-01-23T01:35:42;103278.16;;;20.16;39.15
75745;BME280;64359;51.366;-0.222;2023-01-23T01:36:46;103278.14;;;20.14;39.25
75745;BME280;64359;51.366;-0.222;2023-01-23T01:37:51;103280.73;;;20.13;39.12
75745;BME280;64359;51.366;-0.222;2023-01-23T01:38:55;103277.23;;;20.12;39.29
75745;BME280;64359;51.366;-0.222;2023-01-23T01:39:59;103276.20;;;20.11;39.26
75745;BME280;64359;51.366;-0.222;2023-01-23T01:41:05;103274.56;;;20.09;39.24
75745;BME280;64359;51.366;-0.222;2023-01-23T01:42:10;103272.67;;;20.08;39.15
75745;BME280;64359;51.366;-0.222;2023-01-23T01:43:19;103267.24;;;20.06;39.19
75745;BME280;64359;51.366;-0.222;2023-01-23T01:44:24;103267.33;;;20.05;39.25
75745;BME280;64359;51.366;-0.222;2023-01-23T01:46:05;103266.33;;;20.04;39.18
75745;BME280;64359;51.366;-0.222;2023-01-23T01:47:10;103261.92;;;20.00;39.25
75745;BME280;64359;51.366;-0.222;2023-01-23T01:48:18;103262.09;;;19.98;39.33
75745;BME280;64359;51.366;-0.222;2023-01-23T01:49:27;103262.71;;;19.97;39.20
75745;BME280;64359;51.366;-0.222;2023-01-23T01:50:33;103260.70;;;19.95;39.34
75745;BME280;64359;51.366;-0.222;2023-01-23T01:51:41;103263.83;;;19.95;39.35
75745;BME280;64359;51.366;-0.222;2023-01-23T01:52:47;103264.48;;;19.93;39.28
75745;BME280;64359;51.366;-0.222;2023-01-23T01:53:56;103262.94;;;19.92;39.38
75745;BME280;64359;51.366;-0.222;2023-01-23T01:55:04;103260.46;;;19.89;39.35
75745;BME280;64359;51.366;-0.222;2023-01-23T01:56:11;103263.04;;;19.88;39.44
75745;BME280;64359;51.366;-0.222;2023-01-23T01:57:20;103263.19;;;19.86;39.38
75745;BME280;64359;51.366;-0.222;2023-01-23T01:58:27;103263.84;;;19.85;39.40
75745;BME280;64359;51.366;-0.222;2023-01-23T01:59:35;103265.73;;;19.84;39.48
75745;BME280;64359;51.366;-0.222;2023-01-23T02:00:41;103263.05;;;19.81;39.40
75745;BME280;64359;51.366;-0.222;2023-01-23T02:01:47;103261.97;;;19.81;39.41
75745;BME280;64359;51.366;-0.222;2023-01-23T02:02:56;103254.94;;;19.79;39.36
75745;BME280;64359;51.366;-0.222;2023-01-23T02:04:03;103254.46;;;19.78;39.35
75745;BME280;64359;51.366;-0.222;2023-01-23T02:05:12;103255.85;;;19.77;39.42
75745;BME280;64359;51.366;-0.222;2023-01-23T02:06:18;103257.91;;;19.76;39.43
75745;BME280;64359;51.366;-0.222;2023-01-23T02:07:26;103256.09;;;19.74;39.52
75745;BME280;64359;51.366;-0.222;2023-01-23T02:08:36;103259.41;;;19.73;39.47
75745;BME280;64359;51.366;-0.222;2023-01-23T02:09:43;103260.10;;;19.71;39.46
75745;BME280;64359;51.366;-0.222;2023-01-23T02:10:48;103261.27;;;19.70;39.46
75745;BME280;64359;51.366;-0.222;2023-01-23T02:11:53;103263.14;;;19.69;39.49
75745;BME280;64359;51.366;-0.222;2023-01-23T02:13:19;103264.74;;;19.67;39.53
75745;BME280;64359;51.366;-0.222;2023-01-23T02:14:24;103266.33;;;19.65;39.52
75745;BME280;64359;51.366;-0.222;2023-01-23T02:15:28;103267.70;;;19.64;39.63
75745;BME280;64359;51.366;-0.222;2023-01-23T02:16:35;103270.63;;;19.63;39.54
75745;BME280;64359;51.366;-0.222;2023-01-23T02:17:43;103268.54;;;19.59;39.60
75745;BME280;64359;51.366;-0.222;2023-01-23T02:18:52;103270.35;;;19.59;39.56
75745;BME280;64359;51.366;-0.222;2023-01-23T02:20:04;103270.15;;;19.57;39.56
75745;BME280;64359;51.366;-0.222;2023-01-23T02:21:13;103268.98;;;19.52;39.57
75745;BME280;64359;51.366;-0.222;2023-01-23T02:22:27;103276.86;;;19.54;39.64
75745;BME280;64359;51.366;-0.222;2023-01-23T02:23:43;103282.06;;;19.52;39.67
75745;BME280;64359;51.366;-0.222;2023-01-23T02:24:57;103280.70;;;19.51;39.74
75745;BME280;64359;51.366;-0.222;2023-01-23T02:26:08;103277.28;;;19.49;39.57
75745;BME280;64359;51.366;-0.222;2023-01-23T02:27:12;103281.31;;;19.48;39.62
75745;BME280;64359;51.366;-0.222;2023-01-23T02:28:17;103281.65;;;19.46;39.78
75745;BME280;64359;51.366;-0.222;2023-01-23T02:29:21;103281.41;;;19.44;39.71
75745;BME280;64359;51.366;-0.222;2023-01-23T02:30:26;103285.29;;;19.43;39.70
75745;BME280;64359;51.366;-0.222;2023-01-23T02:31:30;103286.88;;;19.42;39.88
75745;BME280;64359;51.366;-0.222;2023-01-23T02:32:35;103287.81;;;19.41;39.76
75745;BME280;64359;51.366;-0.222;2023-01-23T02:33:46;103290.61;;;19.40;39.72
75745;BME280;64359;51.366;-0.222;2023-01-23T02:34:51;103295.98;;;19.38;39.79
75745;BME280;64359;51.366;-0.222;2023-01-23T02:35:58;103298.73;;;19.37;39.75
75745;BME280;64359;51.366;-0.222;2023-01-23T02:37:04;103304.38;;;19.36;39.75
75745;BME280;64359;51.366;-0.222;2023-01-23T02:38:09;103311.50;;;19.35;39.86
75745;BME280;64359;51.366;-0.222;2023-01-23T02:39:16;103314.80;;;19.34;39.80
75745;BME280;64359;51.366;-0.222;2023-01-23T02:40:30;103315.63;;;19.33;39.89
75745;BME280;64359;51.366;-0.222;2023-01-23T02:41:37;103316.10;;;19.31;39.88
75745;BME280;64359;51.366;-0.222;2023-01-23T02:42:44;103316.91;;;19.30;39.90
75745;BME280;64359;51.366;-0.222;2023-01-23T02:43:49;103314.34;;;19.28;39.90
75745;BME280;64359;51.366;-0.222;2023-01-23T02:44:54;103314.00;;;19.28;39.96
75745;BME280;64359;51.366;-0.222;2023-01-23T02:46:01;103313.91;;;19.27;39.90
75745;BME280;64359;51.366;-0.222;2023-01-23T02:47:07;103311.45;;;19.26;39.94
75745;BME280;64359;51.366;-0.222;2023-01-23T02:48:14;103313.52;;;19.25;40.02
75745;BME280;64359;51.366;-0.222;2023-01-23T02:49:19;103313.65;;;19.23;39.84
75745;BME280;64359;51.366;-0.222;2023-01-23T02:50:24;103316.55;;;19.23;39.89
75745;BME280;64359;51.366;-0.222;2023-01-23T02:51:28;103318.06;;;19.22;39.93
75745;BME280;64359;51.366;-0.222;2023-01-23T02:52:33;103320.81;;;19.22;39.98
75745;BME280;64359;51.366;-0.222;2023-01-23T02:53:37;103324.88;;;19.21;39.99
75745;BME280;64359;51.366;-0.222;2023-01-23T02:54:44;103324.89;;;19.20;40.00
75745;BME280;64359;51.366;-0.222;2023-01-23T02:55:49;103324.95;;;19.19;39.98
75745;BME280;64359;51.366;-0.222;2023-01-23T02:56:53;103320.77;;;19.17;39.96
75745;BME280;64359;51.366;-0.222;2023-01-23T02:57:59;103316.48;;;19.17;40.02
75745;BME280;64359;51.366;-0.222;2023-01-23T02:59:17;103321.38;;;19.17;40.03
75745;BME280;64359;51.366;-0.222;2023-01-23T03:00:39;103322.42;;;19.14;39.97
75745;BME280;64359;51.366;-0.222;2023-01-23T03:01:45;103324.48;;;19.13;39.95
75745;BME280;64359;51.366;-0.222;2023-01-23T03:02:50;103320.67;;;19.09;39.94
75745;BME280;64359;51.366;-0.222;2023-01-23T03:03:57;103325.34;;;19.12;40.02
75745;BME280;64359;51.366;-0.222;2023-01-23T03:05:06;103327.62;;;19.10;40.03
75745;BME280;64359;51.366;-0.222;2023-01-23T03:06:11;103325.30;;;19.10;40.07
75745;BME280;64359;51.366;-0.222;2023-01-23T03:07:15;103322.26;;;19.05;40.11
75745;BME280;64359;51.366;-0.222;2023-01-23T03:08:25;103331.21;;;19.08;40.06
75745;BME280;64359;51.366;-0.222;2023-01-23T03:09:38;103326.36;;;19.03;40.14
75745;BME280;64359;51.366;-0.222;2023-01-23T03:10:43;103331.75;;;19.06;40.14
75745;BME280;64359;51.366;-0.222;2023-01-23T03:11:48;103326.52;;;19.01;40.08
75745;BME280;64359;51.366;-0.222;2023-01-23T03:12:52;103332.96;;;19.04;40.15
75745;BME280;64359;51.366;-0.222;2023-01-23T03:14:00;103332.52;;;19.02;40.08
75745;BME280;64359;51.366;-0.222;2023-01-23T03:15:06;103336.73;;;19.01;40.22
75745;BME280;64359;51.366;-0.222;2023-01-23T03:16:10;103338.27;;;19.00;40.18
75745;BME280;64359;51.366;-0.222;2023-01-23T03:17:15;103341.39;;;18.99;40.14
75745;BME280;64359;51.366;-0.222;2023-01-23T03:18:19;103340.48;;;18.97;40.19
75745;BME280;64359;51.366;-0.222;2023-01-23T03:19:24;103343.33;;;18.97;40.04
75745;BME280;64359;51.366;-0.222;2023-01-23T03:20:29;103343.72;;;18.97;40.18
75745;BME280;64359;51.366;-0.222;2023-01-23T03:21:40;103342.88;;;18.96;40.16
75745;BME280;64359;51.366;-0.222;2023-01-23T03:22:45;103339.88;;;18.96;40.16
75745;BME280;64359;51.366;-0.222;2023-01-23T03:23:49;103337.98;;;18.94;40.31
75745;BME280;64359;51.366;-0.222;2023-01-23T03:24:54;103341.08;;;18.94;40.18
75745;BME280;64359;51.366;-0.222;2023-01-23T03:25:59;103339.52;;;18.93;40.19
75745;BME280;64359;51.366;-0.222;2023-01-23T03:27:04;103342.80;;;18.92;40.14
75745;BME280;64359;51.366;-0.222;2023-01-23T03:28:08;103339.70;;;18.90;40.20
75745;BME280;64359;51.366;-0.222;2023-01-23T03:29:34;103338.16;;;18.89;40.28
75745;BME280;64359;51.366;-0.222;2023-01-23T03:31:01;103343.19;;;18.87;40.19
75745;BME280;64359;51.366;-0.222;2023-01-23T03:32:06;103340.61;;;18.85;40.25
75745;BME280;64359;51.366;-0.222;2023-01-23T03:33:11;103338.73;;;18.84;40.29
75745;BME280;64359;51.366;-0.222;2023-01-23T03:34:15;103342.04;;;18.83;40.39
75745;BME280;64359;51.366;-0.222;2023-01-23T03:35:21;103338.69;;;18.82;40.34
75745;BME280;64359;51.366;-0.222;2023-01-23T03:36:25;103333.26;;;18.78;40.19
75745;BME280;64359;51.366;-0.222;2023-01-23T03:37:30;103344.02;;;18.81;40.40
75745;BME280;64359;51.366;-0.222;2023-01-23T03:38:34;103345.01;;;18.80;40.32
75745;BME280;64359;51.366;-0.222;2023-01-23T03:39:39;103348.21;;;18.78;40.36
75745;BME280;64359;51.366;-0.222;2023-01-23T03:41:01;103352.36;;;18.77;40.27
75745;BME280;64359;51.366;-0.222;2023-01-23T03:42:19;103348.77;;;18.75;40.52
75745;BME280;64359;51.366;-0.222;2023-01-23T03:43:24;103350.13;;;18.74;40.47
75745;BME280;64359;51.366;-0.222;2023-01-23T03:44:29;103350.00;;;18.73;40.38
75745;BME280;64359;51.366;-0.222;2023-01-23T03:45:33;103349.66;;;18.73;40.39
75745;BME280;64359;51.366;-0.222;2023-01-23T03:46:38;103347.20;;;18.72;40.34
75745;BME280;64359;51.366;-0.222;2023-01-23T03:47:42;103342.66;;;18.70;40.30
75745;BME280;64359;51.366;-0.222;2023-01-23T03:48:46;103343.03;;;18.69;40.44
75745;BME280;64359;51.366;-0.222;2023-01-23T03:49:51;103340.74;;;18.69;40.46
75745;BME280;64359;51.366;-0.222;2023-01-23T03:50:55;103343.70;;;18.68;40.46
75745;BME280;64359;51.366;-0.222;2023-01-23T03:52:00;103341.44;;;18.67;40.50
75745;BME280;64359;51.366;-0.222;2023-01-23T03:53:04;103340.58;;;18.66;40.41
75745;BME280;64359;51.366;-0.222;2023-01-23T03:54:08;103342.39;;;18.66;40.49
75745;BME280;64359;51.366;-0.222;2023-01-23T03:55:13;103341.38;;;18.65;40.56
75745;BME280;64359;51.366;-0.222;2023-01-23T03:56:17;103340.04;;;18.64;40.49
75745;BME280;64359;51.366;-0.222;2023-01-23T03:57:22;103340.61;;;18.63;40.55
75745;BME280;64359;51.366;-0.222;2023-01-23T03:58:26;103342.33;;;18.62;40.56
75745;BME280;64359;51.366;-0.222;2023-01-23T03:59:32;103347.41;;;18.61;40.55
75745;BME280;64359;51.366;-0.222;2023-01-23T04:00:37;103350.89;;;18.60;40.56
75745;BME280;64359;51.366;-0.222;2023-01-23T04:01:41;103353.27;;;18.60;40.47
75745;BME280;64359;51.366;-0.222;2023-01-23T04:02:46;103353.87;;;18.59;40.49
75745;BME280;64359;51.366;-0.222;2023-01-23T04:03:51;103351.98;;;18.58;40.59
75745;BME280;64359;51.366;-0.222;2023-01-23T04:04:55;103354.02;;;18.57;40.49
75745;BME280;64359;51.366;-0.222;2023-01-23T04:06:00;103354.80;;;18.56;40.63
75745;BME280;64359;51.366;-0.222;2023-01-23T04:07:04;103356.36;;;18.54;40.51
75745;BME280;64359;51.366;-0.222;2023-01-23T04:08:09;103358.01;;;18.54;40.54
75745;BME280;64359;51.366;-0.222;2023-01-23T04:09:13;103355.38;;;18.53;40.52
75745;BME280;64359;51.366;-0.222;2023-01-23T04:10:17;103355.59;;;18.53;40.49
75745;BME280;64359;51.366;-0.222;2023-01-23T04:11:22;103354.02;;;18.52;40.56
75745;BME280;64359;51.366;-0.222;2023-01-23T04:12:27;103355.34;;;18.51;40.61
75745;BME280;64359;51.366;-0.222;2023-01-23T04:13:31;103348.47;;;18.46;40.56
75745;BME280;64359;51.366;-0.222;2023-01-23T04:14:36;103355.48;;;18.49;40.70
75745;BME280;64359;51.366;-0.222;2023-01-23T04:15:40;103356.23;;;18.49;40.75
75745;BME280;64359;51.366;-0.222;2023-01-23T04:16:44;103356.27;;;18.48;40.80
75745;BME280;64359;51.366;-0.222;2023-01-23T04:17:49;103355.76;;;18.48;40.65
75745;BME280;64359;51.366;-0.222;2023-01-23T04:18:53;103355.41;;;18.48;40.74
75745;BME280;64359;51.366;-0.222;2023-01-23T04:19:58;103353.50;;;18.47;40.89
75745;BME280;64359;51.366;-0.222;2023-01-23T04:21:02;103352.32;;;18.43;41.03
75745;BME280;64359;51.366;-0.222;2023-01-23T04:22:07;103359.51;;;18.46;41.06
75745;BME280;64359;51.366;-0.222;2023-01-23T04:23:11;103363.63;;;18.46;41.23
75745;BME280;64359;51.366;-0.222;2023-01-23T04:24:16;103369.58;;;18.46;41.22
75745;BME280;64359;51.366;-0.222;2023-01-23T04:25:21;103366.30;;;18.46;41.32
75745;BME280;64359;51.366;-0.222;2023-01-23T04:26:25;103367.30;;;18.48;41.21
75745;BME280;64359;51.366;-0.222;2023-01-23T04:27:30;103365.08;;;18.48;41.36
75745;BME280;64359;51.366;-0.222;2023-01-23T04:28:34;103364.75;;;18.50;41.27
75745;BME280;64359;51.366;-0.222;2023-01-23T04:29:38;103360.69;;;18.52;41.36
75745;BME280;64359;51.366;-0.222;2023-01-23T04:30:43;103360.04;;;18.53;41.53
75745;BME280;64359;51.366;-0.222;2023-01-23T04:31:48;103349.77;;;18.51;41.64
75745;BME280;64359;51.366;-0.222;2023-01-23T04:32:52;103356.92;;;18.56;41.62
75745;BME280;64359;51.366;-0.222;2023-01-23T04:33:56;103356.39;;;18.59;41.44
75745;BME280;64359;51.366;-0.222;2023-01-23T04:35:01;103357.27;;;18.61;41.65
75745;BME280;64359;51.366;-0.222;2023-01-23T04:36:06;103360.17;;;18.64;41.54
75745;BME280;64359;51.366;-0.222;2023-01-23T04:37:11;103354.24;;;18.66;41.74
75745;BME280;64359;51.366;-0.222;2023-01-23T04:38:15;103349.96;;;18.68;41.69
75745;BME280;64359;51.366;-0.222;2023-01-23T04:39:20;103345.86;;;18.68;41.83
75745;BME280;64359;51.366;-0.222;2023-01-23T04:40:24;103350.42;;;18.75;41.67
75745;BME280;64359;51.366;-0.222;2023-01-23T04:41:30;103346.66;;;18.77;41.81
75745;BME280;64359;51.366;-0.222;2023-01-23T04:42:35;103350.30;;;18.81;41.72
75745;BME280;64359;51.366;-0.222;2023-01-23T04:43:39;103352.18;;;18.85;41.72
75745;BME280;64359;51.366;-0.222;2023-01-23T04:44:44;103338.36;;;18.82;41.50
75745;BME280;64359;51.366;-0.222;2023-01-23T04:45:50;103348.36;;;18.92;41.55
75745;BME280;64359;51.366;-0.222;2023-01-23T04:46:54;103344.50;;;18.96;41.67
75745;BME280;64359;51.366;-0.222;2023-01-23T04:47:59;103342.08;;;19.00;41.51
75745;BME280;64359;51.366;-0.222;2023-01-23T04:49:03;103341.70;;;19.02;41.40
75745;BME280;64359;51.366;-0.222;2023-01-23T04:50:08;103341.94;;;19.07;41.47
75745;BME280;64359;51.366;-0.222;2023-01-23T04:51:13;103340.41;;;19.10;41.47
75745;BME280;64359;51.366;-0.222;2023-01-23T04:52:17;103344.11;;;19.13;41.36
75745;BME280;64359;51.366;-0.222;2023-01-23T04:53:22;103345.33;;;19.17;41.34
75745;BME280;64359;51.366;-0.222;2023-01-23T04:54:26;103341.72;;;19.17;41.31
75745;BME280;64359;51.366;-0.222;2023-01-23T04:55:30;103349.95;;;19.25;41.17
75745;BME280;64359;51.366;-0.222;2023-01-23T04:56:35;103352.85;;;19.29;41.19
75745;BME280;64359;51.366;-0.222;2023-01-23T04:57:40;103349.20;;;19.32;41.16
75745;BME280;64359;51.366;-0.222;2023-01-23T04:58:44;103348.83;;;19.35;41.06
75745;BME280;64359;51.366;-0.222;2023-01-23T04:59:48;103349.49;;;19.38;41.03
75745;BME280;64359;51.366;-0.222;2023-01-23T05:00:53;103351.58;;;19.41;41.00
75745;BME280;64359;51.366;-0.222;2023-01-23T05:01:57;103352.48;;;19.44;40.92
75745;BME280;64359;51.366;-0.222;2023-01-23T05:03:04;103353.48;;;19.47;41.01
75745;BME280;64359;51.366;-0.222;2023-01-23T05:04:08;103353.30;;;19.49;40.82
75745;BME280;64359;51.366;-0.222;2023-01-23T05:05:13;103352.34;;;19.53;40.82
75745;BME280;64359;51.366;-0.222;2023-01-23T05:06:19;103352.65;;;19.56;40.63
75745;BME280;64359;51.366;-0.222;2023-01-23T05:07:23;103353.45;;;19.59;40.63
75745;BME280;64359;51.366;-0.222;2023-01-23T05:08:28;103354.45;;;19.63;40.68
75745;BME280;64359;51.366;-0.222;2023-01-23T05:09:32;103356.27;;;19.66;40.55
75745;BME280;64359;51.366;-0.222;2023-01-23T05:10:37;103352.44;;;19.69;40.44
75745;BME280;64359;51.366;-0.222;2023-01-23T05:11:41;103352.78;;;19.71;40.48
75745;BME280;64359;51.366;-0.222;2023-01-23T05:12:45;103350.80;;;19.73;40.41
75745;BME280;64359;51.366;-0.222;2023-01-23T05:13:50;103350.43;;;19.76;40.37
75745;BME280;64359;51.366;-0.222;2023-01-23T05:14:55;103352.67;;;19.77;40.34
75745;BME280;64359;51.366;-0.222;2023-01-23T05:15:59;103344.43;;;19.76;40.23
75745;BME280;64359;51.366;-0.222;2023-01-23T05:17:04;103349.56;;;19.82;40.21
75745;BME280;64359;51.366;-0.222;2023-01-23T05:18:08;103351.65;;;19.85;40.12
75745;BME280;64359;51.366;-0.222;2023-01-23T05:19:12;103350.64;;;19.87;40.09
75745;BME280;64359;51.366;-0.222;2023-01-23T05:20:17;103350.66;;;19.89;40.06
75745;BME280;64359;51.366;-0.222;2023-01-23T05:21:22;103352.45;;;19.91;40.09
75745;BME280;64359;51.366;-0.222;2023-01-23T05:22:26;103351.55;;;19.93;40.03
75745;BME280;64359;51.366;-0.222;2023-01-23T05:23:30;103350.27;;;19.96;40.02
75745;BME280;64359;51.366;-0.222;2023-01-23T05:24:35;103347.00;;;19.96;39.92
75745;BME280;64359;51.366;-0.222;2023-01-23T05:25:39;103347.05;;;19.98;39.98
75745;BME280;64359;51.366;-0.222;2023-01-23T05:26:44;103347.20;;;20.01;39.91
75745;BME280;64359;51.366;-0.222;2023-01-23T05:27:48;103344.50;;;20.03;39.89
75745;BME280;64359;51.366;-0.222;2023-01-23T05:28:52;103343.96;;;20.05;39.82
75745;BME280;64359;51.366;-0.222;2023-01-23T05:29:57;103337.89;;;20.07;39.76
75745;BME280;64359;51.366;-0.222;2023-01-23T05:31:01;103338.19;;;20.07;39.75
75745;BME280;64359;51.366;-0.222;2023-01-23T05:32:06;103337.45;;;20.10;39.69
75745;BME280;64359;51.366;-0.222;2023-01-23T05:33:10;103336.80;;;20.11;39.60
75745;BME280;64359;51.366;-0.222;2023-01-23T05:34:15;103335.21;;;20.13;39.73
75745;BME280;64359;51.366;-0.222;2023-01-23T05:35:19;103333.48;;;20.14;39.65
75745;BME280;64359;51.366;-0.222;2023-01-23T05:36:24;103336.45;;;20.16;39.48
75745;BME280;64359;51.366;-0.222;2023-01-23T05:37:28;103338.14;;;20.17;39.44
75745;BME280;64359;51.366;-0.222;2023-01-23T05:38:32;103338.56;;;20.19;39.58
75745;BME280;64359;51.366;-0.222;2023-01-23T05:39:37;103336.69;;;20.19;39.52